Decoded Metar for KRIC (RICHMOND in VA, USA) (IATA:RIC) | Meteo·Mobile Aviation Weather
aviador You're here:

KRIC Decoded Metar

RICHMOND in VA, USA
Report Time2019-02-16 16:54:00
UTC Time2019-02-16 17:09:19
Flight Rules vfr VFR
Wind010° at 06 kt
W.Decomp.*RWY 02: 6.0 kt HW 0.1 kt LCW
RWY 34: 4.7 kt HW 3.8 kt RCW
RWY 07: 3.8 kt HW 4.7 kt LCW
W.Rank010° ranks 4
Current wind is below 010° avg. (7.8)
Visibility9999 m
Phenomena:N/A
Clouds:Broken 065 Hf
Overcast 080 Hf
Expected CloudBase > 1,200 ft AGL from Temp-Dew spread
Ceiling6,500 ft
Temp02°C (ISA -13)
Dew Point-1°C (81% RH)
AAT-2.3°C
QNH1013 hPa
Density Alt-1,299 ft
Elevation164 ft
Report Wrong Elevation
Raw Report
KRIC 161654Z 01006KT 7SM -PLRA BKN065 OVC080 02/M01 A2991 RMK AO2
SNB18E35 SLP133 P0003 T00171006=

Extra information for KRIC:More info

Metar Taf Metar & Taf Last 4 Metars F.Rules Stats Wind Profile Meteogram Temp Stats Airport Information Weather charts Add Link Nearby VenuesMetar ALERT Operation Metar Decoded Social comments

AIRNAV info for KRIC